sensor_id;sensor_type;location;lat;lon;timestamp;temperature;humidity
18658;DHT22;9458;50.942;5.074;2023-07-08T00:01:59;21.20;98.40
18658;DHT22;9458;50.942;5.074;2023-07-08T00:04:26;21.30;99.60
18658;DHT22;9458;50.942;5.074;2023-07-08T00:06:53;21.40;98.50
18658;DHT22;9458;50.942;5.074;2023-07-08T00:09:20;21.50;98.60
18658;DHT22;9458;50.942;5.074;2023-07-08T00:11:47;21.50;98.50
18658;DHT22;9458;50.942;5.074;2023-07-08T00:14:16;21.50;98.80
18658;DHT22;9458;50.942;5.074;2023-07-08T00:16:43;21.30;99.70
18658;DHT22;9458;50.942;5.074;2023-07-08T00:19:12;21.30;99.90
18658;DHT22;9458;50.942;5.074;2023-07-08T00:21:38;21.20;99.90
18658;DHT22;9458;50.942;5.074;2023-07-08T00:24:05;21.20;99.90
18658;DHT22;9458;50.942;5.074;2023-07-08T00:26:32;21.10;99.90
18658;DHT22;9458;50.942;5.074;2023-07-08T00:28:59;21.10;99.90
18658;DHT22;9458;50.942;5.074;2023-07-08T00:31:26;21.10;99.90
18658;DHT22;9458;50.942;5.074;2023-07-08T00:33:54;21.20;99.90
18658;DHT22;9458;50.942;5.074;2023-07-08T00:36:23;21.10;99.90
18658;DHT22;9458;50.942;5.074;2023-07-08T00:38:50;21.00;99.90
18658;DHT22;9458;50.942;5.074;2023-07-08T00:41:18;21.00;99.90
18658;DHT22;9458;50.942;5.074;2023-07-08T00:43:48;21.00;99.90
18658;DHT22;9458;50.942;5.074;2023-07-08T00:46:18;21.00;99.90
18658;DHT22;9458;50.942;5.074;2023-07-08T00:48:49;20.90;99.90
18658;DHT22;9458;50.942;5.074;2023-07-08T00:51:16;20.90;99.90
18658;DHT22;9458;50.942;5.074;2023-07-08T00:53:45;20.80;99.90
18658;DHT22;9458;50.942;5.074;2023-07-08T00:56:13;20.80;99.90
18658;DHT22;9458;50.942;5.074;2023-07-08T00:58:41;20.70;99.90
18658;DHT22;9458;50.942;5.074;2023-07-08T01:01:10;20.60;99.90
18658;DHT22;9458;50.942;5.074;2023-07-08T01:03:39;20.70;99.90
18658;DHT22;9458;50.942;5.074;2023-07-08T01:06:09;20.60;99.90
18658;DHT22;9458;50.942;5.074;2023-07-08T01:08:36;20.60;99.90
18658;DHT22;9458;50.942;5.074;2023-07-08T01:11:05;20.60;99.90
18658;DHT22;9458;50.942;5.074;2023-07-08T01:13:32;20.50;99.90
18658;DHT22;9458;50.942;5.074;2023-07-08T01:16:01;20.50;99.90
18658;DHT22;9458;50.942;5.074;2023-07-08T01:18:27;20.40;99.90
18658;DHT22;9458;50.942;5.074;2023-07-08T01:20:55;20.30;99.90
18658;DHT22;9458;50.942;5.074;2023-07-08T01:23:24;20.30;99.90
18658;DHT22;9458;50.942;5.074;2023-07-08T01:25:51;20.30;99.90
18658;DHT22;9458;50.942;5.074;2023-07-08T01:28:18;20.30;99.90
18658;DHT22;9458;50.942;5.074;2023-07-08T01:30:45;20.30;99.90
18658;DHT22;9458;50.942;5.074;2023-07-08T01:33:13;20.20;99.90
18658;DHT22;9458;50.942;5.074;2023-07-08T01:35:42;20.20;99.90
18658;DHT22;9458;50.942;5.074;2023-07-08T01:38:10;20.10;99.90
18658;DHT22;9458;50.942;5.074;2023-07-08T01:40:47;20.10;99.90
18658;DHT22;9458;50.942;5.074;2023-07-08T01:43:14;20.10;99.90
18658;DHT22;9458;50.942;5.074;2023-07-08T01:45:41;20.10;99.90
18658;DHT22;9458;50.942;5.074;2023-07-08T01:48:08;20.00;99.90
18658;DHT22;9458;50.942;5.074;2023-07-08T01:50:37;20.00;99.90
18658;DHT22;9458;50.942;5.074;2023-07-08T01:53:05;20.00;99.90
18658;DHT22;9458;50.942;5.074;2023-07-08T01:55:34;19.90;99.90
18658;DHT22;9458;50.942;5.074;2023-07-08T01:58:02;19.90;99.90
18658;DHT22;9458;50.942;5.074;2023-07-08T02:00:29;20.00;99.90
18658;DHT22;9458;50.942;5.074;2023-07-08T02:02:56;19.90;99.90
18658;DHT22;9458;50.942;5.074;2023-07-08T02:05:23;19.90;99.90
18658;DHT22;9458;50.942;5.074;2023-07-08T02:07:50;19.80;99.90
18658;DHT22;9458;50.942;5.074;2023-07-08T02:10:17;19.80;99.90
18658;DHT22;9458;50.942;5.074;2023-07-08T02:12:43;19.80;99.90
18658;DHT22;9458;50.942;5.074;2023-07-08T02:15:12;19.90;99.90
18658;DHT22;9458;50.942;5.074;2023-07-08T02:17:39;19.80;99.90
18658;DHT22;9458;50.942;5.074;2023-07-08T02:20:06;19.80;99.90
18658;DHT22;9458;50.942;5.074;2023-07-08T02:22:34;19.80;99.90
18658;DHT22;9458;50.942;5.074;2023-07-08T02:25:02;19.80;99.90
18658;DHT22;9458;50.942;5.074;2023-07-08T02:27:29;19.70;99.90
18658;DHT22;9458;50.942;5.074;2023-07-08T02:29:55;19.70;99.90
18658;DHT22;9458;50.942;5.074;2023-07-08T02:32:24;19.60;99.90
18658;DHT22;9458;50.942;5.074;2023-07-08T02:34:51;19.60;99.90
18658;DHT22;9458;50.942;5.074;2023-07-08T02:37:18;19.50;99.90
18658;DHT22;9458;50.942;5.074;2023-07-08T02:39:45;19.50;99.90
18658;DHT22;9458;50.942;5.074;2023-07-08T02:42:11;19.50;99.90
18658;DHT22;9458;50.942;5.074;2023-07-08T02:44:38;19.50;99.90
18658;DHT22;9458;50.942;5.074;2023-07-08T02:47:05;19.40;99.90
18658;DHT22;9458;50.942;5.074;2023-07-08T02:49:34;19.40;99.90
18658;DHT22;9458;50.942;5.074;2023-07-08T02:52:00;19.40;99.90
18658;DHT22;9458;50.942;5.074;2023-07-08T02:54:27;19.50;99.90
18658;DHT22;9458;50.942;5.074;2023-07-08T02:56:54;19.50;99.90
18658;DHT22;9458;50.942;5.074;2023-07-08T02:59:21;19.40;99.90
18658;DHT22;9458;50.942;5.074;2023-07-08T03:01:48;19.40;99.90
18658;DHT22;9458;50.942;5.074;2023-07-08T03:04:15;19.40;99.90
18658;DHT22;9458;50.942;5.074;2023-07-08T03:06:45;19.40;99.90
18658;DHT22;9458;50.942;5.074;2023-07-08T03:09:12;19.40;99.90
18658;DHT22;9458;50.942;5.074;2023-07-08T03:11:39;19.40;99.90
18658;DHT22;9458;50.942;5.074;2023-07-08T03:14:06;19.40;99.90
18658;DHT22;9458;50.942;5.074;2023-07-08T03:16:33;19.40;99.90
18658;DHT22;9458;50.942;5.074;2023-07-08T03:19:00;19.30;99.90
18658;DHT22;9458;50.942;5.074;2023-07-08T03:21:28;19.40;99.90
18658;DHT22;9458;50.942;5.074;2023-07-08T03:23:56;19.40;99.90
18658;DHT22;9458;50.942;5.074;2023-07-08T03:26:23;19.40;99.90
18658;DHT22;9458;50.942;5.074;2023-07-08T03:28:51;19.30;99.90
18658;DHT22;9458;50.942;5.074;2023-07-08T03:31:18;19.30;99.90
18658;DHT22;9458;50.942;5.074;2023-07-08T03:33:45;19.30;99.90
18658;DHT22;9458;50.942;5.074;2023-07-08T03:36:12;19.30;99.90
18658;DHT22;9458;50.942;5.074;2023-07-08T03:38:48;19.20;99.90
18658;DHT22;9458;50.942;5.074;2023-07-08T03:41:16;19.30;99.90
18658;DHT22;9458;50.942;5.074;2023-07-08T03:43:43;19.20;99.90
18658;DHT22;9458;50.942;5.074;2023-07-08T03:46:10;19.20;99.90
18658;DHT22;9458;50.942;5.074;2023-07-08T03:48:37;19.20;99.90
18658;DHT22;9458;50.942;5.074;2023-07-08T03:51:04;19.20;99.90
18658;DHT22;9458;50.942;5.074;2023-07-08T03:53:31;19.20;99.90
18658;DHT22;9458;50.942;5.074;2023-07-08T03:55:58;19.20;99.90
18658;DHT22;9458;50.942;5.074;2023-07-08T03:58:27;19.20;99.90
18658;DHT22;9458;50.942;5.074;2023-07-08T04:00:53;19.30;99.90
18658;DHT22;9458;50.942;5.074;2023-07-08T04:03:20;19.30;99.90
18658;DHT22;9458;50.942;5.074;2023-07-08T04:05:47;19.50;99.90
18658;DHT22;9458;50.942;5.074;2023-07-08T04:08:14;19.70;99.90
18658;DHT22;9458;50.942;5.074;2023-07-08T04:10:41;20.10;99.90
18658;DHT22;9458;50.942;5.074;2023-07-08T04:13:10;20.40;99.90
18658;DHT22;9458;50.942;5.074;2023-07-08T04:15:38;20.30;99.90
18658;DHT22;9458;50.942;5.074;2023-07-08T04:18:05;20.70;99.90
18658;DHT22;9458;50.942;5.074;2023-07-08T04:20:32;21.10;99.90
18658;DHT22;9458;50.942;5.074;2023-07-08T04:22:59;21.40;99.90
18658;DHT22;9458;50.942;5.074;2023-07-08T04:25:25;21.70;99.90
18658;DHT22;9458;50.942;5.074;2023-07-08T04:27:52;22.00;99.90
18658;DHT22;9458;50.942;5.074;2023-07-08T04:30:21;22.40;99.90
18658;DHT22;9458;50.942;5.074;2023-07-08T04:32:50;22.80;99.90
18658;DHT22;9458;50.942;5.074;2023-07-08T04:35:17;23.10;99.90
18658;DHT22;9458;50.942;5.074;2023-07-08T04:37:44;23.30;99.90
18658;DHT22;9458;50.942;5.074;2023-07-08T04:40:14;23.70;99.90
18658;DHT22;9458;50.942;5.074;2023-07-08T04:42:42;23.90;99.90
18658;DHT22;9458;50.942;5.074;2023-07-08T04:45:13;24.20;99.90
18658;DHT22;9458;50.942;5.074;2023-07-08T04:47:40;24.70;99.90
18658;DHT22;9458;50.942;5.074;2023-07-08T04:50:08;24.90;99.90
18658;DHT22;9458;50.942;5.074;2023-07-08T04:52:36;25.40;99.90
18658;DHT22;9458;50.942;5.074;2023-07-08T04:55:03;25.70;99.90
18658;DHT22;9458;50.942;5.074;2023-07-08T04:57:30;26.10;99.90
18658;DHT22;9458;50.942;5.074;2023-07-08T04:59:57;26.30;99.90
18658;DHT22;9458;50.942;5.074;2023-07-08T05:02:24;26.70;99.60
18658;DHT22;9458;50.942;5.074;2023-07-08T05:04:50;26.90;99.40
18658;DHT22;9458;50.942;5.074;2023-07-08T05:07:19;27.10;99.00
18658;DHT22;9458;50.942;5.074;2023-07-08T05:09:46;27.60;98.90
18658;DHT22;9458;50.942;5.074;2023-07-08T05:12:13;27.60;98.50
18658;DHT22;9458;50.942;5.074;2023-07-08T05:14:40;27.70;97.20
18658;DHT22;9458;50.942;5.074;2023-07-08T05:17:08;27.80;96.40
18658;DHT22;9458;50.942;5.074;2023-07-08T05:19:35;28.20;95.00
18658;DHT22;9458;50.942;5.074;2023-07-08T05:22:02;28.70;94.00
18658;DHT22;9458;50.942;5.074;2023-07-08T05:24:31;29.10;94.10
18658;DHT22;9458;50.942;5.074;2023-07-08T05:26:57;29.40;93.60
18658;DHT22;9458;50.942;5.074;2023-07-08T05:29:25;29.60;93.70
18658;DHT22;9458;50.942;5.074;2023-07-08T05:31:52;29.80;93.30
18658;DHT22;9458;50.942;5.074;2023-07-08T05:34:19;29.90;92.50
18658;DHT22;9458;50.942;5.074;2023-07-08T05:36:46;30.10;92.10
18658;DHT22;9458;50.942;5.074;2023-07-08T05:39:13;30.20;91.40
18658;DHT22;9458;50.942;5.074;2023-07-08T05:41:41;30.80;91.20
18658;DHT22;9458;50.942;5.074;2023-07-08T05:44:08;31.20;91.20
18658;DHT22;9458;50.942;5.074;2023-07-08T05:46:35;31.50;90.90
18658;DHT22;9458;50.942;5.074;2023-07-08T05:49:02;31.80;90.50
18658;DHT22;9458;50.942;5.074;2023-07-08T05:51:29;32.00;90.00
18658;DHT22;9458;50.942;5.074;2023-07-08T05:53:56;32.30;89.50
18658;DHT22;9458;50.942;5.074;2023-07-08T05:56:24;32.60;89.00
18658;DHT22;9458;50.942;5.074;2023-07-08T05:58:52;32.60;87.70
18658;DHT22;9458;50.942;5.074;2023-07-08T06:01:19;33.10;89.00
18658;DHT22;9458;50.942;5.074;2023-07-08T06:03:46;33.00;87.80
18658;DHT22;9458;50.942;5.074;2023-07-08T06:06:13;33.50;87.90
18658;DHT22;9458;50.942;5.074;2023-07-08T06:08:40;33.70;86.80
18658;DHT22;9458;50.942;5.074;2023-07-08T06:11:07;33.90;88.00
18658;DHT22;9458;50.942;5.074;2023-07-08T06:13:34;34.00;86.30
18658;DHT22;9458;50.942;5.074;2023-07-08T06:16:03;34.60;87.40
18658;DHT22;9458;50.942;5.074;2023-07-08T06:18:30;35.00;83.50
18658;DHT22;9458;50.942;5.074;2023-07-08T06:20:57;35.30;82.80
18658;DHT22;9458;50.942;5.074;2023-07-08T06:23:24;35.30;81.70
18658;DHT22;9458;50.942;5.074;2023-07-08T06:25:51;35.70;81.80
18658;DHT22;9458;50.942;5.074;2023-07-08T06:28:18;35.80;81.90
18658;DHT22;9458;50.942;5.074;2023-07-08T06:30:45;36.20;82.50
18658;DHT22;9458;50.942;5.074;2023-07-08T06:33:13;36.30;80.60
18658;DHT22;9458;50.942;5.074;2023-07-08T06:35:40;36.10;80.60
18658;DHT22;9458;50.942;5.074;2023-07-08T06:38:08;35.90;81.00
18658;DHT22;9458;50.942;5.074;2023-07-08T06:40:34;36.10;81.20
18658;DHT22;9458;50.942;5.074;2023-07-08T06:43:02;36.20;81.70
18658;DHT22;9458;50.942;5.074;2023-07-08T06:45:29;36.50;79.40
18658;DHT22;9458;50.942;5.074;2023-07-08T06:47:56;36.80;78.00
18658;DHT22;9458;50.942;5.074;2023-07-08T06:50:24;36.80;79.30
18658;DHT22;9458;50.942;5.074;2023-07-08T06:52:51;37.50;78.40
18658;DHT22;9458;50.942;5.074;2023-07-08T06:55:18;37.40;76.50
18658;DHT22;9458;50.942;5.074;2023-07-08T06:57:45;37.20;78.20
18658;DHT22;9458;50.942;5.074;2023-07-08T07:00:12;37.40;76.70
18658;DHT22;9458;50.942;5.074;2023-07-08T07:02:39;37.80;77.00
18658;DHT22;9458;50.942;5.074;2023-07-08T07:05:06;38.30;78.10
18658;DHT22;9458;50.942;5.074;2023-07-08T07:07:35;38.40;76.50
18658;DHT22;9458;50.942;5.074;2023-07-08T07:10:02;38.60;76.00
18658;DHT22;9458;50.942;5.074;2023-07-08T07:12:29;38.90;75.10
18658;DHT22;9458;50.942;5.074;2023-07-08T07:14:56;39.20;75.60
18658;DHT22;9458;50.942;5.074;2023-07-08T07:17:23;39.70;72.80
18658;DHT22;9458;50.942;5.074;2023-07-08T07:19:50;40.00;73.20
18658;DHT22;9458;50.942;5.074;2023-07-08T07:22:17;40.10;73.30
18658;DHT22;9458;50.942;5.074;2023-07-08T07:24:46;40.60;74.50
18658;DHT22;9458;50.942;5.074;2023-07-08T07:27:13;40.70;73.30
18658;DHT22;9458;50.942;5.074;2023-07-08T07:29:40;40.80;70.70
18658;DHT22;9458;50.942;5.074;2023-07-08T07:32:08;40.60;70.40
18658;DHT22;9458;50.942;5.074;2023-07-08T07:34:35;40.50;73.20
18658;DHT22;9458;50.942;5.074;2023-07-08T07:37:02;40.30;70.90
18658;DHT22;9458;50.942;5.074;2023-07-08T07:39:29;40.10;70.80
18658;DHT22;9458;50.942;5.074;2023-07-08T07:41:57;40.00;72.70
18658;DHT22;9458;50.942;5.074;2023-07-08T07:44:24;40.40;71.50
18658;DHT22;9458;50.942;5.074;2023-07-08T07:46:52;41.00;70.30
18658;DHT22;9458;50.942;5.074;2023-07-08T07:49:18;41.20;69.20
18658;DHT22;9458;50.942;5.074;2023-07-08T07:51:46;41.50;70.40
18658;DHT22;9458;50.942;5.074;2023-07-08T07:54:13;41.60;69.60
18658;DHT22;9458;50.942;5.074;2023-07-08T07:56:40;41.30;68.50
18658;DHT22;9458;50.942;5.074;2023-07-08T07:59:09;41.10;69.20
18658;DHT22;9458;50.942;5.074;2023-07-08T08:01:36;41.20;68.10
18658;DHT22;9458;50.942;5.074;2023-07-08T08:04:03;41.40;67.50
18658;DHT22;9458;50.942;5.074;2023-07-08T08:06:30;41.70;68.00
18658;DHT22;9458;50.942;5.074;2023-07-08T08:08:57;41.70;67.20
18658;DHT22;9458;50.942;5.074;2023-07-08T08:11:24;41.80;67.80
18658;DHT22;9458;50.942;5.074;2023-07-08T08:13:52;41.70;66.40
18658;DHT22;9458;50.942;5.074;2023-07-08T08:16:20;41.80;65.20
18658;DHT22;9458;50.942;5.074;2023-07-08T08:18:47;41.80;65.20
18658;DHT22;9458;50.942;5.074;2023-07-08T08:21:14;41.70;65.10
18658;DHT22;9458;50.942;5.074;2023-07-08T08:23:41;41.40;66.70
18658;DHT22;9458;50.942;5.074;2023-07-08T08:26:08;41.30;69.10
18658;DHT22;9458;50.942;5.074;2023-07-08T08:28:35;40.90;69.80
18658;DHT22;9458;50.942;5.074;2023-07-08T08:31:02;40.20;69.20
18658;DHT22;9458;50.942;5.074;2023-07-08T08:33:30;39.90;68.50
18658;DHT22;9458;50.942;5.074;2023-07-08T08:35:57;39.10;70.80
18658;DHT22;9458;50.942;5.074;2023-07-08T08:38:24;38.90;70.10
18658;DHT22;9458;50.942;5.074;2023-07-08T08:40:51;38.40;69.30
18658;DHT22;9458;50.942;5.074;2023-07-08T08:43:21;38.40;72.40
18658;DHT22;9458;50.942;5.074;2023-07-08T08:45:50;38.20;72.40
18658;DHT22;9458;50.942;5.074;2023-07-08T08:48:20;37.90;72.30
18658;DHT22;9458;50.942;5.074;2023-07-08T08:50:51;37.40;73.50
18658;DHT22;9458;50.942;5.074;2023-07-08T08:53:19;37.50;72.50
18658;DHT22;9458;50.942;5.074;2023-07-08T08:55:49;37.10;73.00
18658;DHT22;9458;50.942;5.074;2023-07-08T08:58:20;37.50;77.30
18658;DHT22;9458;50.942;5.074;2023-07-08T09:00:51;37.20;73.50
18658;DHT22;9458;50.942;5.074;2023-07-08T09:03:23;37.20;73.00
18658;DHT22;9458;50.942;5.074;2023-07-08T09:06:00;37.00;72.40
18658;DHT22;9458;50.942;5.074;2023-07-08T09:08:29;36.90;73.80
18658;DHT22;9458;50.942;5.074;2023-07-08T09:10:58;37.00;76.20
18658;DHT22;9458;50.942;5.074;2023-07-08T09:13:28;37.00;72.00
18658;DHT22;9458;50.942;5.074;2023-07-08T09:15:58;36.80;74.20
18658;DHT22;9458;50.942;5.074;2023-07-08T09:18:27;36.90;73.00
18658;DHT22;9458;50.942;5.074;2023-07-08T09:20:59;37.10;73.90
18658;DHT22;9458;50.942;5.074;2023-07-08T09:23:28;37.20;76.10
18658;DHT22;9458;50.942;5.074;2023-07-08T09:25:57;37.10;74.70
18658;DHT22;9458;50.942;5.074;2023-07-08T09:28:35;37.20;75.00
18658;DHT22;9458;50.942;5.074;2023-07-08T09:31:02;37.20;75.60
18658;DHT22;9458;50.942;5.074;2023-07-08T09:33:32;36.90;74.30
18658;DHT22;9458;50.942;5.074;2023-07-08T09:36:01;36.80;74.80
18658;DHT22;9458;50.942;5.074;2023-07-08T09:38:29;36.50;74.80
18658;DHT22;9458;50.942;5.074;2023-07-08T09:40:57;36.60;78.00
18658;DHT22;9458;50.942;5.074;2023-07-08T09:43:24;36.70;77.50
18658;DHT22;9458;50.942;5.074;2023-07-08T09:45:51;36.70;76.00
18658;DHT22;9458;50.942;5.074;2023-07-08T09:48:23;36.50;78.60
18658;DHT22;9458;50.942;5.074;2023-07-08T09:50:52;36.30;78.40
18658;DHT22;9458;50.942;5.074;2023-07-08T09:53:20;36.10;77.40
18658;DHT22;9458;50.942;5.074;2023-07-08T09:55:47;36.30;79.10
18658;DHT22;9458;50.942;5.074;2023-07-08T09:58:18;36.40;76.50
18658;DHT22;9458;50.942;5.074;2023-07-08T10:00:46;36.40;78.50
18658;DHT22;9458;50.942;5.074;2023-07-08T10:03:17;36.50;78.80
18658;DHT22;9458;50.942;5.074;2023-07-08T10:05:46;36.60;79.40
18658;DHT22;9458;50.942;5.074;2023-07-08T10:08:14;36.60;79.80
18658;DHT22;9458;50.942;5.074;2023-07-08T10:10:43;36.50;77.10
18658;DHT22;9458;50.942;5.074;2023-07-08T10:13:15;36.40;75.60
18658;DHT22;9458;50.942;5.074;2023-07-08T10:15:44;36.40;79.00
18658;DHT22;9458;50.942;5.074;2023-07-08T10:18:13;36.40;78.50
18658;DHT22;9458;50.942;5.074;2023-07-08T10:20:45;36.50;77.00
18658;DHT22;9458;50.942;5.074;2023-07-08T10:23:17;36.50;76.80
18658;DHT22;9458;50.942;5.074;2023-07-08T10:25:49;36.30;77.00
18658;DHT22;9458;50.942;5.074;2023-07-08T10:28:23;36.50;78.00
18658;DHT22;9458;50.942;5.074;2023-07-08T10:30:53;36.40;79.30
18658;DHT22;9458;50.942;5.074;2023-07-08T10:33:30;36.40;79.80
18658;DHT22;9458;50.942;5.074;2023-07-08T10:36:03;36.50;77.20
18658;DHT22;9458;50.942;5.074;2023-07-08T10:38:36;36.40;76.20
18658;DHT22;9458;50.942;5.074;2023-07-08T10:41:09;36.40;77.20
18658;DHT22;9458;50.942;5.074;2023-07-08T10:43:44;36.00;77.50
18658;DHT22;9458;50.942;5.074;2023-07-08T10:46:21;35.80;76.20
18658;DHT22;9458;50.942;5.074;2023-07-08T10:48:56;35.80;77.20
18658;DHT22;9458;50.942;5.074;2023-07-08T10:51:26;36.10;79.40
18658;DHT22;9458;50.942;5.074;2023-07-08T10:54:01;36.00;79.10
18658;DHT22;9458;50.942;5.074;2023-07-08T10:56:35;36.00;80.00
18658;DHT22;9458;50.942;5.074;2023-07-08T10:59:13;35.80;77.80
18658;DHT22;9458;50.942;5.074;2023-07-08T11:01:49;35.80;79.70
18658;DHT22;9458;50.942;5.074;2023-07-08T11:04:26;35.50;79.40
18658;DHT22;9458;50.942;5.074;2023-07-08T11:06:59;35.30;79.80
18658;DHT22;9458;50.942;5.074;2023-07-08T11:09:31;35.70;83.10
18658;DHT22;9458;50.942;5.074;2023-07-08T11:12:08;35.70;79.20
18658;DHT22;9458;50.942;5.074;2023-07-08T11:14:40;35.50;78.00
18658;DHT22;9458;50.942;5.074;2023-07-08T11:17:10;35.30;79.60
18658;DHT22;9458;50.942;5.074;2023-07-08T11:19:42;35.20;80.40
18658;DHT22;9458;50.942;5.074;2023-07-08T11:22:11;35.10;79.50
18658;DHT22;9458;50.942;5.074;2023-07-08T11:24:39;34.90;77.90
18658;DHT22;9458;50.942;5.074;2023-07-08T11:27:10;35.00;80.30
18658;DHT22;9458;50.942;5.074;2023-07-08T11:29:39;35.20;79.00
18658;DHT22;9458;50.942;5.074;2023-07-08T11:32:10;35.20;79.50
18658;DHT22;9458;50.942;5.074;2023-07-08T11:34:39;35.00;80.80
18658;DHT22;9458;50.942;5.074;2023-07-08T11:37:07;34.80;81.60
18658;DHT22;9458;50.942;5.074;2023-07-08T11:39:38;34.70;78.70
18658;DHT22;9458;50.942;5.074;2023-07-08T11:44:49;34.30;82.50
18658;DHT22;9458;50.942;5.074;2023-07-08T11:47:19;34.00;78.70
18658;DHT22;9458;50.942;5.074;2023-07-08T11:49:46;34.20;80.30
18658;DHT22;9458;50.942;5.074;2023-07-08T11:52:14;34.10;77.90
18658;DHT22;9458;50.942;5.074;2023-07-08T11:54:45;34.10;80.10
18658;DHT22;9458;50.942;5.074;2023-07-08T11:57:16;34.20;80.60
18658;DHT22;9458;50.942;5.074;2023-07-08T11:59:43;34.20;78.20
18658;DHT22;9458;50.942;5.074;2023-07-08T12:02:14;34.10;80.00
18658;DHT22;9458;50.942;5.074;2023-07-08T12:04:55;34.10;76.80
18658;DHT22;9458;50.942;5.074;2023-07-08T12:07:29;34.10;79.40
18658;DHT22;9458;50.942;5.074;2023-07-08T12:09:57;34.10;79.90
18658;DHT22;9458;50.942;5.074;2023-07-08T12:12:28;33.80;81.80
18658;DHT22;9458;50.942;5.074;2023-07-08T12:14:58;33.90;82.10
18658;DHT22;9458;50.942;5.074;2023-07-08T12:17:29;33.80;80.80
18658;DHT22;9458;50.942;5.074;2023-07-08T12:19:56;33.90;80.70
18658;DHT22;9458;50.942;5.074;2023-07-08T12:22:24;34.10;83.00
18658;DHT22;9458;50.942;5.074;2023-07-08T12:24:51;34.00;84.10
18658;DHT22;9458;50.942;5.074;2023-07-08T12:27:18;34.00;83.10
18658;DHT22;9458;50.942;5.074;2023-07-08T12:29:45;33.80;82.00
18658;DHT22;9458;50.942;5.074;2023-07-08T12:32:12;34.00;83.00
18658;DHT22;9458;50.942;5.074;2023-07-08T12:34:41;34.00;82.90
18658;DHT22;9458;50.942;5.074;2023-07-08T12:37:10;33.80;83.30
18658;DHT22;9458;50.942;5.074;2023-07-08T12:39:38;33.80;85.00
18658;DHT22;9458;50.942;5.074;2023-07-08T12:42:08;33.90;83.20
18658;DHT22;9458;50.942;5.074;2023-07-08T12:44:36;33.90;81.90
18658;DHT22;9458;50.942;5.074;2023-07-08T12:47:07;34.00;82.50
18658;DHT22;9458;50.942;5.074;2023-07-08T12:49:35;33.90;81.40
18658;DHT22;9458;50.942;5.074;2023-07-08T12:52:04;33.90;83.40
18658;DHT22;9458;50.942;5.074;2023-07-08T12:54:31;33.90;85.60
18658;DHT22;9458;50.942;5.074;2023-07-08T12:56:59;34.00;83.10
18658;DHT22;9458;50.942;5.074;2023-07-08T12:59:26;34.00;83.40
18658;DHT22;9458;50.942;5.074;2023-07-08T13:01:53;34.00;84.90
18658;DHT22;9458;50.942;5.074;2023-07-08T13:04:21;34.00;82.90
18658;DHT22;9458;50.942;5.074;2023-07-08T13:06:49;33.80;82.60
18658;DHT22;9458;50.942;5.074;2023-07-08T13:09:23;33.80;84.60
18658;DHT22;9458;50.942;5.074;2023-07-08T13:11:50;33.90;83.30
18658;DHT22;9458;50.942;5.074;2023-07-08T13:14:19;34.00;85.30
18658;DHT22;9458;50.942;5.074;2023-07-08T13:16:46;34.00;86.80
18658;DHT22;9458;50.942;5.074;2023-07-08T13:19:14;34.00;85.90
18658;DHT22;9458;50.942;5.074;2023-07-08T13:21:41;34.00;87.30
18658;DHT22;9458;50.942;5.074;2023-07-08T13:24:09;34.00;89.60
18658;DHT22;9458;50.942;5.074;2023-07-08T13:26:38;33.90;89.20
18658;DHT22;9458;50.942;5.074;2023-07-08T13:29:10;33.80;90.20
18658;DHT22;9458;50.942;5.074;2023-07-08T13:31:37;33.80;87.90
18658;DHT22;9458;50.942;5.074;2023-07-08T13:34:06;33.80;90.40
18658;DHT22;9458;50.942;5.074;2023-07-08T13:36:35;33.70;92.30
18658;DHT22;9458;50.942;5.074;2023-07-08T13:39:04;33.50;92.10
18658;DHT22;9458;50.942;5.074;2023-07-08T13:41:32;33.50;91.90
18658;DHT22;9458;50.942;5.074;2023-07-08T13:44:04;33.40;93.30
18658;DHT22;9458;50.942;5.074;2023-07-08T13:46:34;33.40;93.10
18658;DHT22;9458;50.942;5.074;2023-07-08T13:49:01;33.30;92.70
18658;DHT22;9458;50.942;5.074;2023-07-08T13:51:29;32.80;91.50
18658;DHT22;9458;50.942;5.074;2023-07-08T13:53:58;32.40;91.60
18658;DHT22;9458;50.942;5.074;2023-07-08T13:56:27;32.10;91.90
18658;DHT22;9458;50.942;5.074;2023-07-08T13:58:59;32.10;91.90
18658;DHT22;9458;50.942;5.074;2023-07-08T14:01:29;32.10;91.70
18658;DHT22;9458;50.942;5.074;2023-07-08T14:03:56;32.10;93.50
18658;DHT22;9458;50.942;5.074;2023-07-08T14:06:28;31.80;95.90
18658;DHT22;9458;50.942;5.074;2023-07-08T14:08:56;31.60;95.60
18658;DHT22;9458;50.942;5.074;2023-07-08T14:11:23;31.40;95.90
18658;DHT22;9458;50.942;5.074;2023-07-08T14:13:50;31.70;95.90
18658;DHT22;9458;50.942;5.074;2023-07-08T14:16:21;31.90;96.60
18658;DHT22;9458;50.942;5.074;2023-07-08T14:18:51;32.20;96.20
18658;DHT22;9458;50.942;5.074;2023-07-08T14:21:18;32.40;95.10
18658;DHT22;9458;50.942;5.074;2023-07-08T14:23:45;32.50;94.50
18658;DHT22;9458;50.942;5.074;2023-07-08T14:26:12;32.50;94.10
18658;DHT22;9458;50.942;5.074;2023-07-08T14:28:39;32.50;94.90
18658;DHT22;9458;50.942;5.074;2023-07-08T14:31:08;32.60;94.20
18658;DHT22;9458;50.942;5.074;2023-07-08T14:33:35;32.70;93.90
18658;DHT22;9458;50.942;5.074;2023-07-08T14:36:04;32.70;92.70
18658;DHT22;9458;50.942;5.074;2023-07-08T14:38:33;32.90;92.90
18658;DHT22;9458;50.942;5.074;2023-07-08T14:41:00;32.90;93.20
18658;DHT22;9458;50.942;5.074;2023-07-08T14:43:28;33.10;92.60
18658;DHT22;9458;50.942;5.074;2023-07-08T14:45:55;33.00;92.30
18658;DHT22;9458;50.942;5.074;2023-07-08T14:48:23;33.10;92.80
18658;DHT22;9458;50.942;5.074;2023-07-08T14:50:50;33.00;93.70
18658;DHT22;9458;50.942;5.074;2023-07-08T14:53:18;33.10;94.00
18658;DHT22;9458;50.942;5.074;2023-07-08T14:55:46;33.10;93.90
18658;DHT22;9458;50.942;5.074;2023-07-08T14:58:19;33.20;94.00
18658;DHT22;9458;50.942;5.074;2023-07-08T15:00:47;33.30;93.40
18658;DHT22;9458;50.942;5.074;2023-07-08T15:03:14;33.50;92.50
18658;DHT22;9458;50.942;5.074;2023-07-08T15:05:41;33.50;93.50
18658;DHT22;9458;50.942;5.074;2023-07-08T15:08:08;33.50;92.80
18658;DHT22;9458;50.942;5.074;2023-07-08T15:10:36;33.40;93.20
18658;DHT22;9458;50.942;5.074;2023-07-08T15:13:05;33.50;92.10
18658;DHT22;9458;50.942;5.074;2023-07-08T15:15:34;33.50;92.90
18658;DHT22;9458;50.942;5.074;2023-07-08T15:18:02;33.50;93.00
18658;DHT22;9458;50.942;5.074;2023-07-08T15:20:35;33.30;92.90
18658;DHT22;9458;50.942;5.074;2023-07-08T15:23:02;33.30;92.50
18658;DHT22;9458;50.942;5.074;2023-07-08T15:25:29;33.30;92.60
18658;DHT22;9458;50.942;5.074;2023-07-08T15:28:00;33.30;92.50
18658;DHT22;9458;50.942;5.074;2023-07-08T15:30:29;33.20;92.00
18658;DHT22;9458;50.942;5.074;2023-07-08T15:32:56;33.10;92.60
18658;DHT22;9458;50.942;5.074;2023-07-08T15:35:24;33.00;92.30
18658;DHT22;9458;50.942;5.074;2023-07-08T15:37:55;33.00;92.30
18658;DHT22;9458;50.942;5.074;2023-07-08T15:40:25;33.00;92.50
18658;DHT22;9458;50.942;5.074;2023-07-08T15:42:53;33.00;92.80
18658;DHT22;9458;50.942;5.074;2023-07-08T15:45:22;33.10;92.80
18658;DHT22;9458;50.942;5.074;2023-07-08T15:47:50;33.10;91.40
18658;DHT22;9458;50.942;5.074;2023-07-08T15:50:18;33.00;92.60
18658;DHT22;9458;50.942;5.074;2023-07-08T15:52:45;32.90;92.30
18658;DHT22;9458;50.942;5.074;2023-07-08T15:55:13;33.00;93.00